Time;durP1;ratioP1;P1;durP2;ratioP2;P2;SDS_P1;SDS_P2;PMS_P1;PMS_P2;Temp;Humidity;BMP_temperature;BMP_pressure;BME280_temperature;BME280_humidity;BME280_pressure;Samples;Min_cycle;Max_cycle;Signal;HPM_P1;HPM_P2
2022/03/31 00:00:06;;;;;;;8.85;1.58;;;0.40;85.90;;;;;;4147295;28;20119;-87
2022/03/31 00:02:10;;;;;;;7.47;2.17;;;0.40;86.00;;;;;;4114558;28;20046;-87
2022/03/31 00:04:33;;;;;;;6.15;1.85;;;0.40;86.10;;;;;;4145404;28;20045;-87
2022/03/31 00:06:34;;;;;;;7.30;1.52;;;0.40;86.10;;;;;;4141738;28;20113;-87
2022/03/31 00:08:42;;;;;;;3.65;1.73;;;0.40;86.10;;;;;;4143185;28;20087;-87
2022/03/31 00:10:52;;;;;;;6.95;2.05;;;0.40;86.10;;;;;;4127535;28;20038;-87
2022/03/31 00:12:54;;;;;;;6.80;1.60;;;0.40;86.10;;;;;;4142053;28;20472;-88
2022/03/31 00:15:04;;;;;;;7.07;2.22;;;0.40;86.10;;;;;;4144185;28;20045;-87
2022/03/31 00:17:05;;;;;;;8.85;1.90;;;0.40;86.10;;;;;;4118843;28;20038;-88
2022/03/31 00:19:06;;;;;;;5.38;1.88;;;0.40;86.00;;;;;;4133895;28;20111;-88
2022/03/31 00:21:07;;;;;;;7.68;2.10;;;0.40;86.00;;;;;;4125473;28;20082;-88
2022/03/31 00:23:08;;;;;;;4.45;1.60;;;0.40;85.90;;;;;;4109429;28;20214;-88
2022/03/31 00:25:10;;;;;;;3.63;1.58;;;0.40;86.00;;;;;;4126541;28;20054;-88
2022/03/31 00:27:19;;;;;;;7.72;1.83;;;0.40;85.80;;;;;;4098370;28;20145;-88
2022/03/31 00:29:26;;;;;;;4.57;1.48;;;0.40;85.90;;;;;;4118772;28;20137;-87
2022/03/31 00:31:30;;;;;;;6.25;1.75;;;0.50;86.10;;;;;;4100693;28;20176;-88
2022/03/31 00:33:32;;;;;;;4.40;1.70;;;0.50;86.10;;;;;;4095025;28;20126;-88
2022/03/31 00:35:37;;;;;;;5.47;1.92;;;0.50;86.10;;;;;;4114775;28;20530;-88
2022/03/31 00:37:42;;;;;;;7.13;1.70;;;0.50;86.00;;;;;;4150487;28;20403;-87
2022/03/31 00:39:44;;;;;;;8.00;1.58;;;0.40;86.00;;;;;;4113308;28;20465;-87
2022/03/31 00:41:45;;;;;;;3.58;1.42;;;0.50;86.10;;;;;;4154882;28;20029;-88
2022/03/31 00:43:51;;;;;;;6.28;1.70;;;0.50;86.00;;;;;;4159704;28;20484;-89
2022/03/31 00:45:56;;;;;;;3.97;1.20;;;0.40;85.80;;;;;;4139914;28;20041;-88
2022/03/31 00:47:57;;;;;;;8.18;1.95;;;0.40;86.00;;;;;;4140487;28;20036;-89
2022/03/31 00:49:57;;;;;;;2.25;1.00;;;0.40;85.90;;;;;;4201546;28;20185;-88
2022/03/31 00:51:59;;;;;;;6.18;1.30;;;0.40;85.80;;;;;;4163608;28;20505;-88
2022/03/31 00:54:01;;;;;;;4.00;1.15;;;0.40;85.60;;;;;;4162232;28;20041;-88
2022/03/31 00:56:08;;;;;;;4.30;1.50;;;0.40;85.40;;;;;;4133987;28;20037;-86
2022/03/31 00:58:16;;;;;;;8.10;1.60;;;0.40;85.30;;;;;;4189840;28;20145;-87
2022/03/31 01:00:39;;;;;;;4.93;1.27;;;0.30;85.50;;;;;;4164393;28;20046;-86
2022/03/31 01:02:43;;;;;;;4.60;1.40;;;0.30;85.50;;;;;;4142046;28;20076;-87
2022/03/31 01:04:46;;;;;;;6.60;1.50;;;0.30;85.40;;;;;;4156228;28;20395;-87
2022/03/31 01:06:47;;;;;;;9.68;1.40;;;0.30;85.50;;;;;;4150786;28;20065;-86
2022/03/31 01:08:55;;;;;;;6.00;1.88;;;0.30;85.60;;;;;;4146115;28;20034;-86
2022/03/31 01:10:57;;;;;;;5.72;1.52;;;0.40;85.60;;;;;;4174012;28;20051;-87
2022/03/31 01:13:16;;;;;;;7.80;1.40;;;0.40;85.80;;;;;;4190750;28;20032;-87
2022/03/31 01:15:19;;;;;;;9.00;1.90;;;0.40;85.60;;;;;;4164503;28;20041;-86
2022/03/31 01:17:25;;;;;;;4.72;1.73;;;0.40;85.50;;;;;;4174973;28;20182;-86
2022/03/31 01:19:42;;;;;;;5.50;1.63;;;0.40;85.50;;;;;;4178902;28;20056;-85
2022/03/31 01:21:48;;;;;;;3.38;1.88;;;0.40;85.20;;;;;;4180584;28;20032;-86
2022/03/31 01:23:51;;;;;;;4.40;1.88;;;0.40;85.10;;;;;;4161113;28;20040;-86
2022/03/31 01:25:51;;;;;;;3.17;1.60;;;0.40;85.10;;;;;;4139251;28;20444;-86
2022/03/31 01:27:52;;;;;;;4.18;1.67;;;0.30;85.10;;;;;;4161036;28;20068;-86
2022/03/31 01:30:10;;;;;;;11.27;2.40;;;0.40;85.20;;;;;;4144593;28;20065;-86
2022/03/31 01:32:13;;;;;;;9.95;2.03;;;0.40;85.20;;;;;;4189943;28;20041;-86
2022/03/31 01:34:39;;;;;;;4.03;1.60;;;0.30;85.30;;;;;;4161079;28;20084;-86
2022/03/31 01:36:48;;;;;;;7.90;1.63;;;0.30;85.30;;;;;;4161373;28;20566;-87
2022/03/31 01:38:55;;;;;;;5.72;1.83;;;0.40;85.40;;;;;;4175098;28;20099;-87
2022/03/31 01:41:01;;;;;;;5.53;1.80;;;0.30;85.30;;;;;;4142668;28;20396;-87
2022/03/31 01:43:03;;;;;;;8.80;1.50;;;0.30;85.30;;;;;;4161752;28;20033;-87
2022/03/31 01:45:07;;;;;;;6.80;1.60;;;0.30;85.20;;;;;;4172744;28;21382;-87
2022/03/31 01:47:17;;;;;;;9.90;1.60;;;0.30;85.10;;;;;;4143483;28;20597;-86
2022/03/31 01:49:21;;;;;;;5.60;2.00;;;0.30;85.00;;;;;;4188651;28;20092;-86
2022/03/31 01:51:26;;;;;;;3.65;1.75;;;0.30;84.90;;;;;;4190781;28;20567;-87
2022/03/31 01:53:29;;;;;;;5.82;1.60;;;0.30;84.70;;;;;;4178326;28;20106;-87
2022/03/31 01:55:31;;;;;;;5.47;1.38;;;0.20;84.20;;;;;;4177181;28;20045;-86
2022/03/31 01:58:00;;;;;;;3.17;1.65;;;0.20;84.20;;;;;;4147193;28;20048;-87
2022/03/31 02:00:13;;;;;;;4.60;1.50;;;0.20;84.20;;;;;;4175593;28;20053;-87
2022/03/31 02:02:20;;;;;;;6.45;1.50;;;0.20;84.10;;;;;;4172002;28;20457;-87
2022/03/31 02:04:46;;;;;;;4.43;1.70;;;0.30;84.10;;;;;;4123778;28;20030;-87
2022/03/31 02:06:54;;;;;;;3.53;1.30;;;0.30;83.80;;;;;;4168292;28;20044;-86
2022/03/31 02:08:57;;;;;;;10.00;1.25;;;0.30;83.50;;;;;;4127704;28;20109;-87
2022/03/31 02:11:16;;;;;;;3.25;1.10;;;0.30;83.30;;;;;;4172569;28;20064;-87
2022/03/31 02:13:19;;;;;;;4.30;1.10;;;0.40;83.60;;;;;;4158576;28;20048;-87
2022/03/31 02:15:23;;;;;;;3.08;0.80;;;0.40;82.70;;;;;;4161225;28;20041;-87
2022/03/31 02:17:52;;;;;;;7.47;0.90;;;0.40;82.10;;;;;;4143180;28;20042;-86
2022/03/31 02:19:57;;;;;;;6.43;1.20;;;0.40;81.70;;;;;;4194485;28;20048;-87
2022/03/31 02:22:20;;;;;;;3.80;0.98;;;0.40;82.00;;;;;;4159359;28;20034;-86
2022/03/31 02:24:21;;;;;;;8.38;0.82;;;0.50;81.10;;;;;;4176869;28;20071;-86
2022/03/31 02:26:24;;;;;;;3.97;0.77;;;0.50;80.40;;;;;;4158545;28;21442;-86
2022/03/31 02:28:28;;;;;;;2.90;1.20;;;0.50;79.30;;;;;;4135744;28;20036;-85
2022/03/31 02:30:29;;;;;;;4.97;0.80;;;0.50;78.20;;;;;;4174582;28;20043;-85
2022/03/31 02:32:30;;;;;;;2.25;0.68;;;0.50;77.60;;;;;;4146173;28;20446;-84
2022/03/31 02:34:35;;;;;;;2.08;0.40;;;0.50;76.90;;;;;;4158083;28;20013;-84
2022/03/31 02:36:40;;;;;;;3.90;0.80;;;0.60;76.50;;;;;;4149610;28;20064;-85
2022/03/31 02:38:41;;;;;;;2.55;0.75;;;0.60;75.90;;;;;;4167611;28;20045;-85
2022/03/31 02:40:43;;;;;;;2.47;0.57;;;0.70;74.90;;;;;;4161215;28;20030;-85
2022/03/31 02:42:48;;;;;;;1.30;0.60;;;0.70;73.40;;;;;;4162843;28;20032;-85
2022/03/31 02:44:53;;;;;;;2.30;0.40;;;0.70;71.90;;;;;;4160570;28;20034;-85
2022/03/31 02:46:55;;;;;;;1.52;0.50;;;0.80;71.00;;;;;;4146951;28;20022;-85
2022/03/31 02:48:59;;;;;;;4.05;0.60;;;0.80;69.50;;;;;;4152432;28;20041;-85
2022/03/31 02:51:00;;;;;;;1.65;0.32;;;0.80;68.70;;;;;;4150991;28;20021;-85
2022/03/31 02:55:24;;;;;;;1.85;0.70;;;0.90;68.20;;;;;;4179833;28;20017;-85
2022/03/31 02:57:31;;;;;;;1.38;0.45;;;1.00;64.90;;;;;;4173865;28;20033;-86
2022/03/31 02:59:32;;;;;;;4.35;0.60;;;1.00;64.80;;;;;;4177717;28;20033;-86
2022/03/31 03:01:36;;;;;;;3.08;0.40;;;1.00;64.10;;;;;;4157947;28;20089;-86
2022/03/31 03:03:46;;;;;;;0.77;0.32;;;1.10;63.00;;;;;;4189310;28;20155;-86
2022/03/31 03:05:48;;;;;;;1.05;0.20;;;1.10;61.30;;;;;;4158029;28;20596;-86
2022/03/31 03:07:51;;;;;;;1.77;0.47;;;1.20;62.10;;;;;;4173735;28;20017;-86
2022/03/31 03:10:03;;;;;;;1.02;0.30;;;1.20;62.30;;;;;;4182575;28;20029;-86
2022/03/31 03:12:06;;;;;;;1.77;0.40;;;1.20;62.30;;;;;;4133040;28;20022;-86
2022/03/31 03:14:09;;;;;;;0.65;0.40;;;1.30;61.50;;;;;;4165360;28;20112;-86
2022/03/31 03:16:12;;;;;;;4.63;0.52;;;1.30;59.20;;;;;;4183217;28;20017;-85
2022/03/31 03:18:18;;;;;;;2.78;0.40;;;1.30;60.00;;;;;;4198208;28;20044;-85
2022/03/31 03:20:25;;;;;;;0.60;0.30;;;1.30;59.30;;;;;;4163609;28;20156;-86
2022/03/31 03:22:31;;;;;;;3.72;0.43;;;1.40;58.90;;;;;;4194657;28;20490;-84
2022/03/31 03:24:33;;;;;;;0.80;0.35;;;1.40;57.00;;;;;;4164967;28;20392;-84
2022/03/31 03:26:36;;;;;;;0.55;0.28;;;1.40;57.10;;;;;;4163107;28;20430;-84
2022/03/31 03:28:37;;;;;;;2.80;0.30;;;1.40;55.80;;;;;;4146588;28;20499;-85
2022/03/31 03:30:39;;;;;;;3.90;0.50;;;1.40;54.60;;;;;;4165051;28;20032;-85
2022/03/31 03:32:40;;;;;;;1.20;0.30;;;1.50;54.40;;;;;;4183608;28;20068;-85
2022/03/31 03:34:41;;;;;;;4.22;0.40;;;1.40;54.50;;;;;;4149419;28;20452;-85
2022/03/31 03:36:43;;;;;;;1.08;0.20;;;1.50;54.10;;;;;;4163623;28;20034;-85
2022/03/31 03:38:45;;;;;;;0.93;0.30;;;1.50;53.00;;;;;;4134074;28;20494;-85
2022/03/31 03:40:49;;;;;;;4.22;0.40;;;1.50;53.10;;;;;;4187612;28;20021;-88
2022/03/31 03:42:54;;;;;;;1.50;0.30;;;1.60;52.70;;;;;;4160417;28;20073;-88
2022/03/31 03:45:00;;;;;;;1.80;0.32;;;1.50;53.30;;;;;;4195068;28;20127;-88
2022/03/31 03:47:13;;;;;;;1.05;0.45;;;1.50;53.70;;;;;;4195534;28;20037;-87
2022/03/31 03:49:20;;;;;;;2.30;0.55;;;1.60;55.00;;;;;;4161925;28;20022;-86
2022/03/31 03:51:26;;;;;;;5.13;0.75;;;1.60;56.60;;;;;;4191040;28;20032;-85
2022/03/31 03:53:27;;;;;;;2.08;0.40;;;1.60;57.30;;;;;;4167653;28;20166;-84
2022/03/31 03:55:31;;;;;;;5.43;0.60;;;1.60;57.50;;;;;;4148371;28;20084;-85
2022/03/31 03:57:32;;;;;;;1.50;0.30;;;1.60;58.20;;;;;;4141861;28;20050;-84
2022/03/31 03:59:35;;;;;;;3.50;0.68;;;1.70;58.10;;;;;;4160454;28;20025;-85
2022/03/31 04:01:38;;;;;;;5.70;0.73;;;1.60;58.60;;;;;;4160099;28;20044;-85
2022/03/31 04:03:40;;;;;;;3.88;0.82;;;1.70;59.30;;;;;;4147048;28;20033;-84
2022/03/31 04:05:41;;;;;;;3.75;0.50;;;1.70;59.60;;;;;;4158013;28;20033;-85
2022/03/31 04:07:43;;;;;;;4.78;0.85;;;1.70;60.30;;;;;;4142003;28;20052;-85
2022/03/31 04:09:45;;;;;;;4.97;1.00;;;1.70;60.90;;;;;;4175367;28;20029;-85
2022/03/31 04:11:48;;;;;;;2.85;0.77;;;1.70;61.70;;;;;;4158193;28;20053;-85
2022/03/31 04:13:49;;;;;;;4.00;0.50;;;1.70;61.70;;;;;;4158883;28;20048;-85
2022/03/31 04:15:51;;;;;;;1.83;0.50;;;1.70;60.70;;;;;;4173636;28;20063;-85
2022/03/31 04:17:54;;;;;;;5.25;0.60;;;1.70;61.20;;;;;;4158397;28;20041;-85
2022/03/31 04:19:56;;;;;;;1.65;0.47;;;1.70;61.30;;;;;;4139892;28;20045;-84
2022/03/31 04:21:57;;;;;;;3.80;0.60;;;1.70;59.90;;;;;;4157325;28;20042;-85
2022/03/31 04:23:57;;;;;;;3.47;0.88;;;1.70;59.40;;;;;;4140824;28;20041;-84
2022/03/31 04:25:58;;;;;;;3.90;1.33;;;1.60;59.80;;;;;;4157904;28;20037;-84
2022/03/31 04:28:06;;;;;;;2.20;0.75;;;1.60;60.80;;;;;;4138103;28;20156;-84
2022/03/31 04:30:09;;;;;;;0.73;0.32;;;1.60;61.70;;;;;;4174391;28;20763;-85
2022/03/31 04:32:33;;;;;;;0.82;0.50;;;1.60;59.40;;;;;;4159908;28;22103;-85
2022/03/31 04:34:35;;;;;;;5.25;0.60;;;1.60;58.00;;;;;;4173556;28;20037;-84
2022/03/31 04:36:37;;;;;;;1.77;0.63;;;1.60;58.60;;;;;;4150417;28;20033;-85
2022/03/31 04:38:40;;;;;;;3.47;0.52;;;1.60;59.40;;;;;;4141598;28;20080;-85
2022/03/31 04:40:41;;;;;;;2.55;0.77;;;1.60;59.40;;;;;;4188592;28;20113;-85
2022/03/31 04:42:42;;;;;;;2.55;0.43;;;1.60;59.40;;;;;;4173418;28;22232;-85
2022/03/31 04:44:43;;;;;;;3.42;1.00;;;1.60;59.80;;;;;;4143861;28;20161;-88
2022/03/31 04:46:45;;;;;;;1.15;0.65;;;1.60;60.80;;;;;;4190235;28;20110;-85
2022/03/31 04:48:45;;;;;;;7.38;0.80;;;1.70;61.80;;;;;;4159134;28;20390;-85
2022/03/31 04:52:43;;;;;;;3.28;0.80;;;1.60;62.40;;;;;;4178108;27;20130;-82
2022/03/31 04:54:51;;;;;;;1.73;0.57;;;1.70;63.30;;;;;;4139742;28;20046;-83
2022/03/31 04:56:55;;;;;;;5.55;0.75;;;1.60;62.50;;;;;;4161100;28;20025;-82
2022/03/31 04:58:58;;;;;;;;;;;1.70;61.60;;;;;;4160652;28;20033;-83
2022/03/31 05:01:06;;;;;;;3.78;0.70;;;1.70;61.80;;;;;;4166915;28;19968;-83
2022/03/31 05:03:15;;;;;;;6.38;0.75;;;1.60;61.60;;;;;;4112644;28;20493;-83
2022/03/31 05:05:26;;;;;;;7.55;1.00;;;1.60;60.40;;;;;;4157650;28;20064;-83
2022/03/31 05:07:35;;;;;;;2.05;0.50;;;1.60;60.70;;;;;;4124518;28;20042;-83
2022/03/31 05:09:46;;;;;;;2.05;0.63;;;1.50;60.60;;;;;;4130405;28;20394;-82
2022/03/31 05:11:54;;;;;;;2.50;0.60;;;1.70;61.10;;;;;;4142022;28;20034;-83
2022/03/31 05:13:57;;;;;;;1.17;0.47;;;1.60;61.40;;;;;;4155725;28;20025;-83
2022/03/31 05:16:03;;;;;;;3.60;0.70;;;1.60;61.30;;;;;;4158700;28;20026;-83
2022/03/31 05:18:09;;;;;;;3.53;1.10;;;1.50;61.60;;;;;;4112956;28;20023;-83
2022/03/31 05:20:15;;;;;;;3.10;0.55;;;1.60;62.00;;;;;;4146492;28;20112;-82
2022/03/31 05:22:16;;;;;;;4.32;0.50;;;1.70;61.60;;;;;;4151509;28;20034;-82
2022/03/31 05:24:20;;;;;;;3.88;0.50;;;1.60;61.40;;;;;;4147309;28;20064;-82
2022/03/31 05:26:23;;;;;;;1.73;0.50;;;1.60;61.00;;;;;;4149494;28;20022;-83
2022/03/31 05:28:30;;;;;;;1.73;0.38;;;1.60;61.20;;;;;;4124550;28;20136;-82
2022/03/31 05:30:30;;;;;;;7.45;0.80;;;1.70;61.80;;;;;;4138298;28;20085;-82
2022/03/31 05:32:31;;;;;;;1.85;0.70;;;1.60;62.20;;;;;;4168484;28;20033;-82
2022/03/31 05:34:34;;;;;;;2.80;0.40;;;1.60;62.60;;;;;;4167522;28;20041;-82
2022/03/31 05:36:34;;;;;;;2.83;0.60;;;1.60;62.70;;;;;;4146506;28;20431;-82
2022/03/31 05:38:35;;;;;;;2.33;0.60;;;1.60;62.40;;;;;;4150736;28;20026;-82
2022/03/31 05:40:36;;;;;;;3.90;0.80;;;1.70;62.50;;;;;;4165677;28;20095;-82
2022/03/31 05:42:42;;;;;;;4.28;0.68;;;1.60;62.40;;;;;;4151750;28;20044;-82
2022/03/31 05:44:42;;;;;;;3.70;0.70;;;1.60;62.20;;;;;;4141432;28;20559;-82
2022/03/31 05:46:44;;;;;;;5.28;0.70;;;1.60;62.00;;;;;;4170994;28;20112;-82
2022/03/31 05:48:45;;;;;;;2.83;0.68;;;1.60;62.10;;;;;;4170945;28;20038;-83
2022/03/31 05:50:45;;;;;;;2.28;0.38;;;1.70;62.20;;;;;;4153125;28;20041;-83
2022/03/31 05:52:46;;;;;;;4.50;0.45;;;1.60;62.30;;;;;;4166459;28;20048;-82
2022/03/31 05:54:47;;;;;;;5.65;0.95;;;1.70;62.30;;;;;;4172320;28;20104;-83
2022/03/31 05:56:48;;;;;;;2.35;0.40;;;1.70;61.80;;;;;;4167646;28;20029;-83
2022/03/31 05:58:49;;;;;;;10.93;0.70;;;1.70;61.40;;;;;;4151454;28;20156;-82
2022/03/31 06:00:53;;;;;;;2.10;0.50;;;1.70;61.20;;;;;;4170367;28;20144;-82
2022/03/31 06:02:55;;;;;;;1.75;0.52;;;1.70;61.50;;;;;;4150849;28;20037;-82
2022/03/31 06:04:55;;;;;;;3.45;0.68;;;1.70;61.30;;;;;;4141149;28;20033;-82
2022/03/31 06:06:56;;;;;;;3.97;0.60;;;1.70;61.30;;;;;;4143010;28;20040;-83
2022/03/31 06:08:58;;;;;;;6.53;0.47;;;1.70;61.50;;;;;;4147336;28;20180;-82
2022/03/31 06:10:59;;;;;;;2.53;0.40;;;1.70;61.70;;;;;;4141019;28;20125;-83
2022/03/31 06:12:59;;;;;;;3.25;0.57;;;1.70;61.60;;;;;;4155444;28;20026;-82
2022/03/31 06:15:04;;;;;;;3.80;0.70;;;1.80;61.80;;;;;;4159719;28;20022;-83
2022/03/31 06:17:04;;;;;;;3.67;0.80;;;1.70;61.10;;;;;;4131894;28;20030;-82
2022/03/31 06:19:05;;;;;;;1.95;0.70;;;1.70;61.40;;;;;;4130607;28;20117;-82
2022/03/31 06:21:06;;;;;;;3.38;0.65;;;1.70;62.10;;;;;;4159859;28;20045;-83
2022/03/31 06:23:06;;;;;;;3.58;0.52;;;1.80;61.90;;;;;;4160862;28;20040;-82
2022/03/31 06:25:10;;;;;;;2.60;0.75;;;1.70;61.50;;;;;;4161976;28;20033;-82
2022/03/31 06:27:11;;;;;;;;;;;1.70;61.70;;;;;;4142745;28;20034;-80
2022/03/31 06:29:13;;;;;;;6.75;1.23;;;1.80;61.80;;;;;;4142100;28;19936;-82
2022/03/31 06:31:13;;;;;;;2.70;0.57;;;1.80;61.60;;;;;;4137784;28;20038;-82
2022/03/31 06:33:28;;;;;;;3.97;0.73;;;1.80;61.90;;;;;;4132899;28;20057;-82
2022/03/31 06:35:29;;;;;;;2.97;0.60;;;1.70;62.20;;;;;;4146243;28;20274;-82
2022/03/31 06:37:30;;;;;;;2.85;0.50;;;1.80;62.10;;;;;;4099962;28;20091;-83
2022/03/31 06:39:45;;;;;;;5.78;1.10;;;1.90;62.00;;;;;;4130991;28;20056;-83
2022/03/31 06:41:46;;;;;;;6.60;0.80;;;1.90;62.10;;;;;;4130813;28;20041;-81
2022/03/31 06:43:52;;;;;;;3.55;0.90;;;1.90;62.20;;;;;;4142895;28;20033;-82
2022/03/31 06:45:55;;;;;;;4.97;0.70;;;1.90;61.20;;;;;;4130509;28;20045;-82
2022/03/31 06:47:59;;;;;;;2.92;0.60;;;1.90;61.20;;;;;;4141574;28;20400;-83
2022/03/31 06:50:05;;;;;;;2.70;0.50;;;1.90;61.40;;;;;;4142108;28;20036;-82
2022/03/31 06:52:14;;;;;;;2.17;0.50;;;1.80;61.70;;;;;;4158222;28;20057;-82
2022/03/31 06:54:15;;;;;;;2.60;0.68;;;1.90;61.90;;;;;;4111909;28;20069;-82
2022/03/31 06:56:18;;;;;;;3.13;0.60;;;1.80;61.60;;;;;;4130721;28;20037;-81
2022/03/31 06:58:29;;;;;;;3.13;0.75;;;1.90;61.40;;;;;;4131396;28;20050;-82
2022/03/31 07:00:30;;;;;;;1.25;0.60;;;1.90;61.60;;;;;;4161245;28;21829;-82
2022/03/31 07:02:31;;;;;;;2.80;0.85;;;1.90;61.50;;;;;;4159946;28;20033;-82
2022/03/31 07:04:31;;;;;;;3.10;0.90;;;2.00;61.60;;;;;;4161468;28;20042;-82
2022/03/31 07:06:33;;;;;;;3.75;0.70;;;1.90;61.30;;;;;;4142536;28;20030;-82
2022/03/31 07:08:35;;;;;;;4.47;0.52;;;2.00;61.40;;;;;;4159028;28;20043;-82
2022/03/31 07:10:38;;;;;;;1.27;0.50;;;2.00;61.40;;;;;;4160351;28;20100;-83
2022/03/31 07:12:39;;;;;;;5.53;1.10;;;2.00;60.90;;;;;;4143682;28;20025;-82
2022/03/31 07:14:40;;;;;;;1.75;0.57;;;2.10;60.00;;;;;;4157921;28;20031;-83
2022/03/31 07:16:40;;;;;;;4.65;0.70;;;2.00;60.00;;;;;;4113868;28;20049;-83
2022/03/31 07:18:41;;;;;;;5.47;0.77;;;2.10;59.90;;;;;;4130114;28;20027;-83
2022/03/31 07:20:42;;;;;;;2.50;0.60;;;2.10;59.60;;;;;;4152259;28;20048;-84
2022/03/31 07:22:47;;;;;;;1.73;0.77;;;2.00;59.70;;;;;;4143299;28;20564;-82
2022/03/31 07:24:48;;;;;;;2.75;0.57;;;2.10;59.20;;;;;;4137656;28;20060;-83
2022/03/31 07:26:48;;;;;;;3.65;0.77;;;2.10;58.80;;;;;;4140165;28;20527;-83
2022/03/31 07:28:49;;;;;;;3.65;0.63;;;2.10;58.70;;;;;;4129938;28;20029;-83
2022/03/31 07:30:50;;;;;;;2.13;0.68;;;2.10;59.20;;;;;;4147594;28;20057;-82
2022/03/31 07:32:54;;;;;;;3.65;1.05;;;2.10;59.50;;;;;;4125026;28;20761;-82
2022/03/31 07:34:55;;;;;;;2.92;0.60;;;2.10;58.90;;;;;;4121003;28;20177;-82
2022/03/31 07:36:56;;;;;;;1.80;0.45;;;2.10;59.10;;;;;;4136085;28;20033;-82
2022/03/31 07:38:57;;;;;;;1.27;0.50;;;2.20;57.70;;;;;;4153964;28;20028;-82
2022/03/31 07:40:57;;;;;;;1.58;0.30;;;2.20;57.40;;;;;;4154854;28;20030;-82
2022/03/31 07:42:58;;;;;;;1.80;0.30;;;2.20;56.90;;;;;;4121918;28;20045;-82
2022/03/31 07:44:59;;;;;;;4.70;1.00;;;2.20;56.10;;;;;;4124325;28;20042;-82
2022/03/31 07:47:00;;;;;;;2.78;0.65;;;2.20;56.30;;;;;;4125835;28;20461;-82
2022/03/31 07:49:00;;;;;;;4.55;0.60;;;2.20;56.60;;;;;;4136950;28;20431;-82
2022/03/31 07:51:01;;;;;;;12.07;0.73;;;2.20;56.20;;;;;;4139413;28;20041;-83
2022/03/31 07:53:01;;;;;;;2.70;0.50;;;2.20;55.60;;;;;;4138355;28;20479;-82
2022/03/31 07:55:03;;;;;;;3.97;0.50;;;2.20;55.80;;;;;;4140293;28;20863;-83
2022/03/31 07:57:06;;;;;;;3.03;0.70;;;2.20;56.00;;;;;;4109969;28;21953;-83
2022/03/31 07:59:07;;;;;;;1.00;0.50;;;2.20;55.20;;;;;;4136325;28;20034;-84
2022/03/31 08:01:14;;;;;;;3.50;0.60;;;2.30;55.60;;;;;;4136728;28;20271;-83
2022/03/31 08:03:16;;;;;;;4.07;0.40;;;2.30;54.50;;;;;;4121882;28;20165;-82
2022/03/31 08:05:22;;;;;;;1.25;0.43;;;2.30;54.40;;;;;;4139240;28;20045;-83
2022/03/31 08:07:25;;;;;;;2.63;0.57;;;2.30;55.00;;;;;;4129373;28;20034;-83
2022/03/31 08:09:26;;;;;;;2.50;0.45;;;2.30;55.40;;;;;;4146883;28;20746;-83
2022/03/31 08:11:27;;;;;;;1.65;0.30;;;2.40;54.40;;;;;;4128779;28;20038;-83
2022/03/31 08:13:28;;;;;;;2.05;0.35;;;2.40;54.40;;;;;;4116832;28;20022;-82
2022/03/31 08:15:29;;;;;;;2.10;0.45;;;2.40;54.60;;;;;;4158083;28;20030;-83
2022/03/31 08:17:30;;;;;;;4.38;0.60;;;2.40;53.70;;;;;;4148660;28;20022;-83
2022/03/31 08:19:33;;;;;;;1.67;0.43;;;2.40;52.90;;;;;;4132166;28;20121;-83
2022/03/31 08:21:36;;;;;;;2.35;0.55;;;2.50;53.30;;;;;;4155300;28;20117;-83
2022/03/31 08:23:38;;;;;;;2.15;0.73;;;2.50;53.90;;;;;;4107924;28;20408;-82
2022/03/31 08:25:41;;;;;;;4.35;0.90;;;2.50;53.90;;;;;;4106916;28;20446;-83
2022/03/31 08:27:42;;;;;;;2.65;0.70;;;2.50;53.40;;;;;;4126097;28;20460;-82
2022/03/31 08:29:46;;;;;;;5.43;1.00;;;2.50;54.20;;;;;;4123963;28;20594;-82
2022/03/31 08:31:46;;;;;;;;;;;2.50;55.30;;;;;;4157350;28;20037;-83
2022/03/31 08:33:47;;;;;;;2.70;0.70;;;2.60;54.60;;;;;;4123971;28;19918;-82
2022/03/31 08:35:48;;;;;;;1.40;0.47;;;2.50;54.40;;;;;;4136983;28;20041;-82
2022/03/31 08:37:48;;;;;;;1.88;0.70;;;2.60;52.60;;;;;;4150229;28;20377;-83
2022/03/31 08:39:49;;;;;;;2.90;0.90;;;2.60;52.10;;;;;;4122893;28;20065;-82
2022/03/31 08:41:49;;;;;;;5.65;0.95;;;2.50;51.90;;;;;;4122620;28;20058;-83
2022/03/31 08:43:50;;;;;;;1.85;0.70;;;2.60;51.40;;;;;;4121171;28;20113;-82
2022/03/31 08:45:55;;;;;;;1.40;0.60;;;2.60;51.80;;;;;;4137343;28;20075;-83
2022/03/31 08:47:57;;;;;;;3.22;0.80;;;2.70;52.60;;;;;;4125131;28;20049;-82
2022/03/31 08:49:58;;;;;;;11.20;0.80;;;2.70;52.80;;;;;;4139774;28;20021;-82
2022/03/31 08:51:59;;;;;;;3.78;0.90;;;2.60;53.10;;;;;;4140545;28;20041;-83
2022/03/31 08:54:00;;;;;;;3.53;0.88;;;2.60;53.20;;;;;;4136787;28;20041;-82
2022/03/31 08:56:01;;;;;;;3.47;0.47;;;2.70;51.40;;;;;;4130988;28;20022;-83
2022/03/31 08:58:02;;;;;;;1.80;0.60;;;2.70;51.00;;;;;;4148947;28;20475;-82
2022/03/31 09:00:03;;;;;;;3.10;0.57;;;2.70;50.00;;;;;;4137553;28;20130;-83
2022/03/31 09:02:06;;;;;;;2.35;0.63;;;2.70;49.70;;;;;;4137719;28;20065;-83
2022/03/31 09:04:17;;;;;;;1.52;0.90;;;2.70;49.60;;;;;;4138401;28;20104;-83
2022/03/31 09:06:22;;;;;;;2.15;0.50;;;2.70;48.80;;;;;;4136599;28;20061;-82
2022/03/31 09:08:23;;;;;;;7.40;0.85;;;2.70;49.10;;;;;;4124009;28;20129;-83
2022/03/31 09:10:27;;;;;;;1.40;0.50;;;2.70;49.20;;;;;;4138603;28;20755;-83
2022/03/31 09:12:38;;;;;;;2.20;0.50;;;2.60;49.40;;;;;;4150987;28;20036;-82
2022/03/31 09:14:38;;;;;;;5.95;0.52;;;2.70;50.60;;;;;;4157868;28;20434;-83
2022/03/31 09:16:39;;;;;;;4.95;0.60;;;2.70;50.60;;;;;;4125181;28;20022;-82
2022/03/31 09:18:40;;;;;;;3.30;0.52;;;2.70;50.60;;;;;;4124182;28;20026;-83
2022/03/31 09:20:42;;;;;;;1.42;0.47;;;2.70;49.50;;;;;;4156961;28;20029;-83
2022/03/31 09:22:45;;;;;;;3.97;1.17;;;2.80;49.00;;;;;;4124064;28;20527;-83
2022/03/31 09:24:46;;;;;;;4.25;0.70;;;2.70;49.00;;;;;;4136577;28;20387;-83
2022/03/31 09:26:48;;;;;;;1.50;0.32;;;2.70;49.80;;;;;;4139595;28;20021;-83
2022/03/31 09:28:50;;;;;;;2.45;0.52;;;2.70;49.40;;;;;;4141703;28;20038;-83
2022/03/31 09:30:52;;;;;;;7.60;0.63;;;2.80;50.10;;;;;;4158074;28;20029;-84
2022/03/31 09:32:56;;;;;;;2.72;0.70;;;2.80;49.90;;;;;;4121448;28;20034;-83
2022/03/31 09:35:04;;;;;;;4.53;0.80;;;2.80;49.60;;;;;;4105862;28;20091;-84
2022/03/31 09:37:07;;;;;;;3.28;0.60;;;2.80;49.40;;;;;;4152827;28;20037;-83
2022/03/31 09:39:13;;;;;;;3.30;0.50;;;2.90;49.60;;;;;;4134592;28;20018;-84
2022/03/31 09:41:21;;;;;;;2.28;0.40;;;2.90;49.90;;;;;;4153583;28;20048;-84
2022/03/31 09:43:22;;;;;;;2.00;0.50;;;2.90;48.30;;;;;;4140334;28;20116;-83
2022/03/31 09:45:22;;;;;;;2.80;0.50;;;2.90;48.50;;;;;;4132311;28;20026;-83
2022/03/31 09:47:23;;;;;;;1.63;0.40;;;3.00;48.60;;;;;;4132009;28;20030;-84
2022/03/31 09:49:27;;;;;;;0.77;0.25;;;3.00;49.00;;;;;;4147358;28;20038;-84
2022/03/31 09:51:27;;;;;;;0.60;0.40;;;3.00;49.00;;;;;;4130723;28;20030;-84
2022/03/31 09:53:30;;;;;;;3.63;0.45;;;3.10;48.40;;;;;;4163131;28;20026;-85
2022/03/31 09:55:31;;;;;;;2.00;0.40;;;3.00;48.40;;;;;;4132325;28;20023;-84
2022/03/31 09:57:32;;;;;;;3.70;0.50;;;3.10;49.00;;;;;;4129259;28;20667;-84
2022/03/31 09:59:39;;;;;;;0.32;0.20;;;3.10;48.30;;;;;;4127774;28;20051;-84
2022/03/31 10:01:40;;;;;;;2.17;0.52;;;3.10;47.60;;;;;;4131079;28;20049;-84
2022/03/31 10:03:41;;;;;;;3.08;0.50;;;3.10;47.70;;;;;;4141565;28;20046;-84
2022/03/31 10:05:42;;;;;;;2.17;0.63;;;3.20;48.40;;;;;;4126811;28;20034;-84
2022/03/31 10:07:45;;;;;;;1.13;0.38;;;3.20;48.60;;;;;;4130134;28;20046;-84
2022/03/31 10:09:46;;;;;;;1.48;0.50;;;3.20;47.20;;;;;;4161828;28;20030;-83
2022/03/31 10:11:49;;;;;;;3.40;0.68;;;3.20;46.70;;;;;;4144800;28;20137;-84
2022/03/31 10:13:52;;;;;;;3.42;0.70;;;3.20;46.70;;;;;;4143305;28;20033;-83
2022/03/31 10:15:58;;;;;;;0.68;0.30;;;3.30;47.20;;;;;;4144200;28;20037;-83
2022/03/31 10:17:59;;;;;;;4.93;0.90;;;3.20;47.30;;;;;;4146145;28;20066;-83
2022/03/31 10:20:10;;;;;;;5.10;0.60;;;3.20;47.30;;;;;;4132364;28;20046;-84
2022/03/31 10:24:41;;;;;;;0.85;0.55;;;3.30;47.60;;;;;;4126729;28;20030;-83
2022/03/31 10:26:42;;;;;;;3.60;0.77;;;3.30;47.60;;;;;;4116891;28;20035;-84
2022/03/31 10:28:52;;;;;;;2.58;0.40;;;3.30;46.50;;;;;;4127396;28;20558;-83
2022/03/31 10:31:04;;;;;;;2.08;0.55;;;3.40;46.50;;;;;;4130807;28;20049;-84
2022/03/31 10:33:05;;;;;;;2.15;0.60;;;3.40;47.80;;;;;;4125119;28;20029;-84
2022/03/31 10:35:06;;;;;;;2.47;0.40;;;3.40;48.30;;;;;;4139379;28;20105;-84
2022/03/31 10:37:07;;;;;;;3.60;0.52;;;3.40;46.50;;;;;;4121502;28;20030;-84
2022/03/31 10:39:14;;;;;;;1.75;0.45;;;3.40;46.30;;;;;;4155745;28;20025;-84
2022/03/31 10:41:16;;;;;;;5.40;0.90;;;3.50;46.80;;;;;;4154410;28;20045;-85
2022/03/31 10:43:24;;;;;;;2.22;0.40;;;3.50;46.30;;;;;;4119157;28;20088;-84
2022/03/31 10:45:42;;;;;;;1.58;0.47;;;3.50;46.30;;;;;;4127882;28;20156;-84
2022/03/31 10:47:43;;;;;;;2.67;0.68;;;3.50;46.30;;;;;;4107424;28;20485;-84
2022/03/31 10:49:55;;;;;;;1.95;0.50;;;3.50;46.10;;;;;;4127657;28;20421;-84
2022/03/31 10:51:56;;;;;;;4.32;0.40;;;3.50;45.40;;;;;;4140556;28;20048;-84
2022/03/31 10:53:57;;;;;;;1.17;0.45;;;3.60;44.80;;;;;;4150391;28;20057;-84
2022/03/31 10:55:58;;;;;;;2.30;0.40;;;3.60;45.30;;;;;;4138845;28;20022;-83
2022/03/31 10:57:58;;;;;;;2.30;0.40;;;3.60;45.80;;;;;;4133354;28;20425;-84
2022/03/31 10:59:59;;;;;;;1.83;0.38;;;3.60;45.70;;;;;;4151776;28;20422;-83